sensor_id;sensor_type;location;lat;lon;timestamp;P1;durP1;ratioP1;P2;durP2;ratioP2
60306;SDS011;46155;52.364;6.580;2022-11-20T04:02:42;13.20;;;8.25;;
60306;SDS011;46155;52.364;6.580;2022-11-20T04:05:07;15.13;;;8.83;;
60306;SDS011;46155;52.364;6.580;2022-11-20T04:07:33;13.97;;;8.70;;
60306;SDS011;46155;52.364;6.580;2022-11-20T04:09:58;12.57;;;8.20;;
60306;SDS011;46155;52.364;6.580;2022-11-20T04:12:24;18.60;;;9.50;;
60306;SDS011;46155;52.364;6.580;2022-11-20T04:14:49;15.77;;;8.60;;
60306;SDS011;46155;52.364;6.580;2022-11-20T04:17:14;19.43;;;9.10;;
60306;SDS011;46155;52.364;6.580;2022-11-20T04:19:39;13.53;;;9.50;;
60306;SDS011;46155;52.364;6.580;2022-11-20T04:22:05;21.20;;;11.43;;
60306;SDS011;46155;52.364;6.580;2022-11-20T04:24:30;18.50;;;10.43;;
60306;SDS011;46155;52.364;6.580;2022-11-20T04:26:55;17.60;;;9.63;;
60306;SDS011;46155;52.364;6.580;2022-11-20T04:29:21;19.63;;;8.57;;
60306;SDS011;46155;52.364;6.580;2022-11-20T04:31:46;19.40;;;9.37;;
60306;SDS011;46155;52.364;6.580;2022-11-20T04:34:11;15.63;;;8.93;;
60306;SDS011;46155;52.364;6.580;2022-11-20T04:36:36;10.73;;;8.33;;
60306;SDS011;46155;52.364;6.580;2022-11-20T04:39:03;17.40;;;9.73;;
60306;SDS011;46155;52.364;6.580;2022-11-20T04:41:31;20.13;;;9.98;;
60306;SDS011;46155;52.364;6.580;2022-11-20T04:43:59;20.88;;;11.10;;
60306;SDS011;46155;52.364;6.580;2022-11-20T04:46:28;21.77;;;10.63;;
60306;SDS011;46155;52.364;6.580;2022-11-20T04:48:55;12.90;;;8.80;;
60306;SDS011;46155;52.364;6.580;2022-11-20T04:51:21;18.40;;;9.90;;
60306;SDS011;46155;52.364;6.580;2022-11-20T04:53:47;16.30;;;8.90;;
60306;SDS011;46155;52.364;6.580;2022-11-20T04:56:13;21.17;;;10.03;;
60306;SDS011;46155;52.364;6.580;2022-11-20T04:58:38;18.60;;;8.70;;
60306;SDS011;46155;52.364;6.580;2022-11-20T05:01:10;13.88;;;9.15;;
60306;SDS011;46155;52.364;6.580;2022-11-20T05:03:35;20.10;;;10.77;;
60306;SDS011;46155;52.364;6.580;2022-11-20T05:06:01;14.07;;;9.43;;
60306;SDS011;46155;52.364;6.580;2022-11-20T05:08:30;17.08;;;9.90;;
60306;SDS011;46155;52.364;6.580;2022-11-20T05:11:03;18.25;;;9.93;;
60306;SDS011;46155;52.364;6.580;2022-11-20T05:13:34;19.27;;;9.63;;
60306;SDS011;46155;52.364;6.580;2022-11-20T05:16:03;16.70;;;9.60;;
60306;SDS011;46155;52.364;6.580;2022-11-20T05:18:30;23.15;;;10.80;;
60306;SDS011;46155;52.364;6.580;2022-11-20T05:20:55;15.93;;;9.97;;
60306;SDS011;46155;52.364;6.580;2022-11-20T05:23:22;22.23;;;9.80;;
60306;SDS011;46155;52.364;6.580;2022-11-20T05:25:47;20.37;;;8.37;;
60306;SDS011;46155;52.364;6.580;2022-11-20T05:28:13;19.17;;;9.70;;
60306;SDS011;46155;52.364;6.580;2022-11-20T05:30:39;11.53;;;8.23;;
60306;SDS011;46155;52.364;6.580;2022-11-20T05:33:04;13.63;;;8.67;;
60306;SDS011;46155;52.364;6.580;2022-11-20T05:35:29;17.70;;;9.17;;
60306;SDS011;46155;52.364;6.580;2022-11-20T05:37:54;19.50;;;11.33;;
60306;SDS011;46155;52.364;6.580;2022-11-20T05:40:20;22.97;;;10.70;;
60306;SDS011;46155;52.364;6.580;2022-11-20T05:42:45;17.77;;;9.57;;
60306;SDS011;46155;52.364;6.580;2022-11-20T05:45:10;19.30;;;9.23;;
60306;SDS011;46155;52.364;6.580;2022-11-20T05:47:35;22.03;;;11.33;;
60306;SDS011;46155;52.364;6.580;2022-11-20T05:50:01;16.37;;;9.63;;
60306;SDS011;46155;52.364;6.580;2022-11-20T05:52:29;16.90;;;10.17;;
60306;SDS011;46155;52.364;6.580;2022-11-20T05:54:55;31.80;;;10.32;;
60306;SDS011;46155;52.364;6.580;2022-11-20T05:57:21;14.87;;;9.53;;
60306;SDS011;46155;52.364;6.580;2022-11-20T05:59:46;20.33;;;9.97;;
60306;SDS011;46155;52.364;6.580;2022-11-20T06:02:11;18.87;;;10.50;;
60306;SDS011;46155;52.364;6.580;2022-11-20T06:04:37;23.77;;;10.87;;
60306;SDS011;46155;52.364;6.580;2022-11-20T06:07:04;16.23;;;9.57;;
60306;SDS011;46155;52.364;6.580;2022-11-20T06:09:30;21.05;;;10.52;;
60306;SDS011;46155;52.364;6.580;2022-11-20T06:11:55;13.03;;;8.73;;
60306;SDS011;46155;52.364;6.580;2022-11-20T06:14:21;17.33;;;10.53;;
60306;SDS011;46155;52.364;6.580;2022-11-20T06:16:46;17.90;;;9.77;;
60306;SDS011;46155;52.364;6.580;2022-11-20T06:19:11;21.83;;;10.97;;
60306;SDS011;46155;52.364;6.580;2022-11-20T06:21:36;22.87;;;10.27;;
60306;SDS011;46155;52.364;6.580;2022-11-20T06:24:02;20.47;;;10.70;;
60306;SDS011;46155;52.364;6.580;2022-11-20T06:26:27;17.13;;;10.53;;
60306;SDS011;46155;52.364;6.580;2022-11-20T06:28:53;22.03;;;9.17;;
60306;SDS011;46155;52.364;6.580;2022-11-20T06:31:21;19.20;;;9.40;;
60306;SDS011;46155;52.364;6.580;2022-11-20T06:33:48;17.15;;;9.88;;
60306;SDS011;46155;52.364;6.580;2022-11-20T06:36:15;17.92;;;9.80;;
60306;SDS011;46155;52.364;6.580;2022-11-20T06:38:42;14.55;;;9.88;;
60306;SDS011;46155;52.364;6.580;2022-11-20T06:41:11;16.10;;;9.40;;
60306;SDS011;46155;52.364;6.580;2022-11-20T06:43:46;19.70;;;10.07;;
60306;SDS011;46155;52.364;6.580;2022-11-20T06:46:12;19.73;;;10.13;;
60306;SDS011;46155;52.364;6.580;2022-11-20T06:48:39;21.50;;;9.57;;
60306;SDS011;46155;52.364;6.580;2022-11-20T06:51:05;21.77;;;10.30;;
60306;SDS011;46155;52.364;6.580;2022-11-20T06:53:32;19.48;;;12.00;;
60306;SDS011;46155;52.364;6.580;2022-11-20T06:55:58;18.95;;;10.45;;
60306;SDS011;46155;52.364;6.580;2022-11-20T06:58:25;19.23;;;11.50;;
60306;SDS011;46155;52.364;6.580;2022-11-20T07:00:51;21.58;;;11.02;;
60306;SDS011;46155;52.364;6.580;2022-11-20T07:03:17;19.73;;;10.90;;
60306;SDS011;46155;52.364;6.580;2022-11-20T07:05:42;18.70;;;9.83;;
60306;SDS011;46155;52.364;6.580;2022-11-20T07:08:07;24.43;;;11.97;;
60306;SDS011;46155;52.364;6.580;2022-11-20T07:10:33;21.77;;;10.83;;
60306;SDS011;46155;52.364;6.580;2022-11-20T07:12:59;20.70;;;11.13;;
60306;SDS011;46155;52.364;6.580;2022-11-20T07:15:24;20.13;;;10.00;;
60306;SDS011;46155;52.364;6.580;2022-11-20T07:17:50;20.83;;;11.30;;
60306;SDS011;46155;52.364;6.580;2022-11-20T07:20:15;24.23;;;9.93;;
60306;SDS011;46155;52.364;6.580;2022-11-20T07:22:41;21.93;;;11.40;;
60306;SDS011;46155;52.364;6.580;2022-11-20T07:25:07;26.83;;;11.75;;
60306;SDS011;46155;52.364;6.580;2022-11-20T07:27:33;22.58;;;10.15;;
60306;SDS011;46155;52.364;6.580;2022-11-20T07:29:59;20.83;;;10.20;;
60306;SDS011;46155;52.364;6.580;2022-11-20T07:32:24;21.83;;;10.53;;
60306;SDS011;46155;52.364;6.580;2022-11-20T07:34:50;18.70;;;10.03;;
60306;SDS011;46155;52.364;6.580;2022-11-20T07:37:15;19.33;;;10.07;;
60306;SDS011;46155;52.364;6.580;2022-11-20T07:39:40;17.33;;;7.90;;
60306;SDS011;46155;52.364;6.580;2022-11-20T07:42:06;14.13;;;8.23;;
60306;SDS011;46155;52.364;6.580;2022-11-20T07:44:32;31.93;;;10.73;;
60306;SDS011;46155;52.364;6.580;2022-11-20T07:46:57;16.30;;;9.63;;
60306;SDS011;46155;52.364;6.580;2022-11-20T07:49:23;18.90;;;9.70;;
60306;SDS011;46155;52.364;6.580;2022-11-20T07:51:50;21.73;;;9.67;;
60306;SDS011;46155;52.364;6.580;2022-11-20T07:54:16;16.75;;;9.30;;
60306;SDS011;46155;52.364;6.580;2022-11-20T07:56:42;20.47;;;9.67;;
60306;SDS011;46155;52.364;6.580;2022-11-20T07:59:07;21.97;;;10.83;;
60306;SDS011;46155;52.364;6.580;2022-11-20T08:01:32;21.03;;;11.03;;
60306;SDS011;46155;52.364;6.580;2022-11-20T08:03:57;23.30;;;11.83;;
60306;SDS011;46155;52.364;6.580;2022-11-20T08:06:23;31.40;;;15.33;;
60306;SDS011;46155;52.364;6.580;2022-11-20T08:08:49;40.88;;;19.75;;
60306;SDS011;46155;52.364;6.580;2022-11-20T08:11:15;32.87;;;12.20;;
60306;SDS011;46155;52.364;6.580;2022-11-20T08:13:59;31.77;;;14.53;;
60306;SDS011;46155;52.364;6.580;2022-11-20T08:16:36;27.40;;;13.60;;
60306;SDS011;46155;52.364;6.580;2022-11-20T08:19:02;27.70;;;13.00;;
60306;SDS011;46155;52.364;6.580;2022-11-20T08:21:28;32.77;;;15.83;;
60306;SDS011;46155;52.364;6.580;2022-11-20T08:23:53;30.00;;;15.43;;
60306;SDS011;46155;52.364;6.580;2022-11-20T08:26:18;30.07;;;14.13;;
60306;SDS011;46155;52.364;6.580;2022-11-20T08:28:45;22.17;;;11.73;;
60306;SDS011;46155;52.364;6.580;2022-11-20T08:31:10;37.43;;;15.20;;
60306;SDS011;46155;52.364;6.580;2022-11-20T08:33:36;29.83;;;15.20;;
60306;SDS011;46155;52.364;6.580;2022-11-20T08:36:01;27.33;;;12.53;;
60306;SDS011;46155;52.364;6.580;2022-11-20T08:38:28;36.93;;;15.87;;
60306;SDS011;46155;52.364;6.580;2022-11-20T08:40:58;22.50;;;11.63;;
60306;SDS011;46155;52.364;6.580;2022-11-20T08:43:43;21.13;;;12.00;;
60306;SDS011;46155;52.364;6.580;2022-11-20T08:46:08;24.03;;;13.33;;
60306;SDS011;46155;52.364;6.580;2022-11-20T08:48:34;24.87;;;12.80;;
60306;SDS011;46155;52.364;6.580;2022-11-20T08:50:59;34.50;;;15.43;;
60306;SDS011;46155;52.364;6.580;2022-11-20T08:53:24;29.80;;;15.00;;
60306;SDS011;46155;52.364;6.580;2022-11-20T08:55:50;30.97;;;14.07;;
60306;SDS011;46155;52.364;6.580;2022-11-20T08:58:15;21.37;;;12.03;;
60306;SDS011;46155;52.364;6.580;2022-11-20T09:00:40;26.13;;;14.17;;
60306;SDS011;46155;52.364;6.580;2022-11-20T09:03:06;26.13;;;13.47;;
60306;SDS011;46155;52.364;6.580;2022-11-20T09:05:31;22.00;;;11.73;;
60306;SDS011;46155;52.364;6.580;2022-11-20T09:07:57;24.13;;;13.83;;
60306;SDS011;46155;52.364;6.580;2022-11-20T09:10:23;28.33;;;12.97;;
60306;SDS011;46155;52.364;6.580;2022-11-20T09:12:49;24.83;;;13.33;;
60306;SDS011;46155;52.364;6.580;2022-11-20T09:15:15;18.30;;;11.60;;
60306;SDS011;46155;52.364;6.580;2022-11-20T09:17:40;27.00;;;11.97;;
60306;SDS011;46155;52.364;6.580;2022-11-20T09:20:06;21.60;;;12.87;;
60306;SDS011;46155;52.364;6.580;2022-11-20T09:22:31;19.93;;;12.63;;
60306;SDS011;46155;52.364;6.580;2022-11-20T09:24:57;24.00;;;13.43;;
60306;SDS011;46155;52.364;6.580;2022-11-20T09:27:23;18.53;;;11.93;;
60306;SDS011;46155;52.364;6.580;2022-11-20T09:29:48;22.17;;;13.27;;
60306;SDS011;46155;52.364;6.580;2022-11-20T09:32:13;20.93;;;11.57;;
60306;SDS011;46155;52.364;6.580;2022-11-20T09:34:39;24.13;;;12.50;;
60306;SDS011;46155;52.364;6.580;2022-11-20T09:37:04;29.70;;;14.30;;
60306;SDS011;46155;52.364;6.580;2022-11-20T09:39:29;20.50;;;13.13;;
60306;SDS011;46155;52.364;6.580;2022-11-20T09:41:56;21.50;;;12.17;;
60306;SDS011;46155;52.364;6.580;2022-11-20T09:47:19;21.80;;;11.17;;
60306;SDS011;46155;52.364;6.580;2022-11-20T09:50:01;22.70;;;12.13;;
60306;SDS011;46155;52.364;6.580;2022-11-20T09:52:55;26.87;;;13.30;;
60306;SDS011;46155;52.364;6.580;2022-11-20T09:55:42;27.73;;;14.07;;
60306;SDS011;46155;52.364;6.580;2022-11-20T09:58:14;24.23;;;12.93;;
60306;SDS011;46155;52.364;6.580;2022-11-20T10:00:49;21.90;;;11.83;;
60306;SDS011;46155;52.364;6.580;2022-11-20T10:03:19;22.77;;;12.00;;
60306;SDS011;46155;52.364;6.580;2022-11-20T10:05:54;25.43;;;12.30;;
60306;SDS011;46155;52.364;6.580;2022-11-20T10:10:46;22.87;;;12.13;;
60306;SDS011;46155;52.364;6.580;2022-11-20T10:13:17;19.50;;;12.30;;
60306;SDS011;46155;52.364;6.580;2022-11-20T10:18:51;22.47;;;13.30;;
60306;SDS011;46155;52.364;6.580;2022-11-20T10:21:33;25.73;;;13.50;;
60306;SDS011;46155;52.364;6.580;2022-11-20T10:30:15;21.73;;;13.73;;
60306;SDS011;46155;52.364;6.580;2022-11-20T10:32:47;29.97;;;12.50;;
60306;SDS011;46155;52.364;6.580;2022-11-20T10:35:39;23.40;;;13.37;;
60306;SDS011;46155;52.364;6.580;2022-11-20T10:38:11;17.33;;;11.50;;
60306;SDS011;46155;52.364;6.580;2022-11-20T10:40:43;22.80;;;12.10;;
60306;SDS011;46155;52.364;6.580;2022-11-20T10:43:14;15.97;;;11.27;;
60306;SDS011;46155;52.364;6.580;2022-11-20T10:45:55;22.17;;;12.10;;
60306;SDS011;46155;52.364;6.580;2022-11-20T10:48:26;22.47;;;11.03;;
60306;SDS011;46155;52.364;6.580;2022-11-20T10:53:47;18.03;;;11.37;;
60306;SDS011;46155;52.364;6.580;2022-11-20T10:59:24;22.33;;;11.63;;
60306;SDS011;46155;52.364;6.580;2022-11-20T11:02:19;26.10;;;12.00;;
60306;SDS011;46155;52.364;6.580;2022-11-20T11:04:47;19.07;;;10.83;;
60306;SDS011;46155;52.364;6.580;2022-11-20T11:07:17;22.77;;;14.77;;
60306;SDS011;46155;52.364;6.580;2022-11-20T11:10:05;29.63;;;14.77;;
60306;SDS011;46155;52.364;6.580;2022-11-20T11:12:47;20.03;;;12.00;;
60306;SDS011;46155;52.364;6.580;2022-11-20T11:15:58;20.87;;;12.17;;
60306;SDS011;46155;52.364;6.580;2022-11-20T11:18:08;19.63;;;12.13;;
60306;SDS011;46155;52.364;6.580;2022-11-20T11:20:49;22.30;;;12.63;;
60306;SDS011;46155;52.364;6.580;2022-11-20T11:23:26;26.47;;;12.70;;
60306;SDS011;46155;52.364;6.580;2022-11-20T11:26:00;21.13;;;13.00;;
60306;SDS011;46155;52.364;6.580;2022-11-20T11:28:27;35.80;;;17.13;;
60306;SDS011;46155;52.364;6.580;2022-11-20T11:30:53;37.27;;;17.73;;
60306;SDS011;46155;52.364;6.580;2022-11-20T11:35:56;24.80;;;13.07;;
60306;SDS011;46155;52.364;6.580;2022-11-20T11:40:53;25.23;;;12.40;;
60306;SDS011;46155;52.364;6.580;2022-11-20T11:43:20;32.27;;;13.90;;
60306;SDS011;46155;52.364;6.580;2022-11-20T11:48:57;28.23;;;13.13;;
60306;SDS011;46155;52.364;6.580;2022-11-20T11:51:26;25.83;;;13.27;;
60306;SDS011;46155;52.364;6.580;2022-11-20T11:53:56;20.37;;;11.93;;
60306;SDS011;46155;52.364;6.580;2022-11-20T11:56:24;19.23;;;11.00;;
60306;SDS011;46155;52.364;6.580;2022-11-20T11:58:52;22.20;;;12.10;;
60306;SDS011;46155;52.364;6.580;2022-11-20T12:01:29;14.93;;;9.53;;
60306;SDS011;46155;52.364;6.580;2022-11-20T12:07:07;16.73;;;10.83;;
60306;SDS011;46155;52.364;6.580;2022-11-20T12:09:54;20.93;;;11.27;;
60306;SDS011;46155;52.364;6.580;2022-11-20T12:12:23;17.57;;;10.73;;
60306;SDS011;46155;52.364;6.580;2022-11-20T12:14:53;17.33;;;10.73;;
60306;SDS011;46155;52.364;6.580;2022-11-20T12:17:20;21.87;;;12.07;;
60306;SDS011;46155;52.364;6.580;2022-11-20T12:19:46;16.90;;;11.17;;
60306;SDS011;46155;52.364;6.580;2022-11-20T12:30:13;19.20;;;11.70;;
60306;SDS011;46155;52.364;6.580;2022-11-20T12:32:48;21.40;;;11.43;;
60306;SDS011;46155;52.364;6.580;2022-11-20T12:40:59;16.60;;;10.70;;
60306;SDS011;46155;52.364;6.580;2022-11-20T12:43:37;17.00;;;9.30;;
60306;SDS011;46155;52.364;6.580;2022-11-20T12:46:42;16.33;;;12.07;;
60306;SDS011;46155;52.364;6.580;2022-11-20T12:52:20;17.20;;;10.30;;
60306;SDS011;46155;52.364;6.580;2022-11-20T13:07:01;17.17;;;11.97;;
60306;SDS011;46155;52.364;6.580;2022-11-20T13:09:32;18.63;;;11.27;;
60306;SDS011;46155;52.364;6.580;2022-11-20T13:12:13;15.97;;;10.83;;
60306;SDS011;46155;52.364;6.580;2022-11-20T13:17:58;16.27;;;10.07;;
60306;SDS011;46155;52.364;6.580;2022-11-20T13:20:25;15.47;;;10.63;;
60306;SDS011;46155;52.364;6.580;2022-11-20T13:22:52;19.77;;;11.03;;
60306;SDS011;46155;52.364;6.580;2022-11-20T13:27:59;16.67;;;11.23;;
60306;SDS011;46155;52.364;6.580;2022-11-20T13:30:28;15.17;;;10.30;;
60306;SDS011;46155;52.364;6.580;2022-11-20T13:32:56;13.37;;;9.97;;
60306;SDS011;46155;52.364;6.580;2022-11-20T13:35:30;17.27;;;10.30;;
60306;SDS011;46155;52.364;6.580;2022-11-20T13:38:01;13.87;;;10.47;;
60306;SDS011;46155;52.364;6.580;2022-11-20T13:40:27;20.37;;;11.13;;
60306;SDS011;46155;52.364;6.580;2022-11-20T13:43:11;14.90;;;10.90;;
60306;SDS011;46155;52.364;6.580;2022-11-20T13:45:40;16.87;;;11.77;;
60306;SDS011;46155;52.364;6.580;2022-11-20T13:48:16;13.87;;;10.90;;
60306;SDS011;46155;52.364;6.580;2022-11-20T13:56:19;15.97;;;10.60;;
60306;SDS011;46155;52.364;6.580;2022-11-20T13:58:58;16.17;;;10.40;;
60306;SDS011;46155;52.364;6.580;2022-11-20T14:01:31;15.87;;;11.40;;
60306;SDS011;46155;52.364;6.580;2022-11-20T14:03:57;17.60;;;10.70;;
60306;SDS011;46155;52.364;6.580;2022-11-20T14:06:30;17.10;;;9.97;;
60306;SDS011;46155;52.364;6.580;2022-11-20T14:08:58;15.87;;;10.33;;
60306;SDS011;46155;52.364;6.580;2022-11-20T14:11:27;23.27;;;10.77;;
60306;SDS011;46155;52.364;6.580;2022-11-20T14:16:24;17.30;;;11.10;;
60306;SDS011;46155;52.364;6.580;2022-11-20T14:18:51;19.57;;;11.07;;
60306;SDS011;46155;52.364;6.580;2022-11-20T14:21:26;17.57;;;11.30;;
60306;SDS011;46155;52.364;6.580;2022-11-20T14:24:03;20.43;;;12.63;;
60306;SDS011;46155;52.364;6.580;2022-11-20T14:26:29;22.77;;;11.67;;
60306;SDS011;46155;52.364;6.580;2022-11-20T14:28:55;16.00;;;11.00;;
60306;SDS011;46155;52.364;6.580;2022-11-20T14:31:24;15.73;;;10.93;;
60306;SDS011;46155;52.364;6.580;2022-11-20T14:33:54;17.20;;;11.53;;
60306;SDS011;46155;52.364;6.580;2022-11-20T14:36:21;17.83;;;11.33;;
60306;SDS011;46155;52.364;6.580;2022-11-20T14:38:49;23.27;;;12.87;;
60306;SDS011;46155;52.364;6.580;2022-11-20T14:41:20;26.70;;;12.33;;
60306;SDS011;46155;52.364;6.580;2022-11-20T14:43:51;24.27;;;10.90;;
60306;SDS011;46155;52.364;6.580;2022-11-20T14:46:24;20.60;;;11.73;;
60306;SDS011;46155;52.364;6.580;2022-11-20T14:48:51;19.37;;;11.07;;
60306;SDS011;46155;52.364;6.580;2022-11-20T14:51:28;18.80;;;11.30;;
60306;SDS011;46155;52.364;6.580;2022-11-20T14:54:07;19.47;;;12.90;;
60306;SDS011;46155;52.364;6.580;2022-11-20T14:56:35;19.80;;;11.77;;
60306;SDS011;46155;52.364;6.580;2022-11-20T14:59:01;20.93;;;13.20;;
60306;SDS011;46155;52.364;6.580;2022-11-20T15:01:27;18.00;;;11.77;;
60306;SDS011;46155;52.364;6.580;2022-11-20T15:04:08;19.27;;;11.57;;
60306;SDS011;46155;52.364;6.580;2022-11-20T15:06:35;19.63;;;11.60;;
60306;SDS011;46155;52.364;6.580;2022-11-20T15:09:12;24.57;;;12.30;;
60306;SDS011;46155;52.364;6.580;2022-11-20T15:11:38;27.73;;;15.07;;
60306;SDS011;46155;52.364;6.580;2022-11-20T15:14:04;23.33;;;13.83;;
60306;SDS011;46155;52.364;6.580;2022-11-20T15:16:31;26.90;;;15.47;;
60306;SDS011;46155;52.364;6.580;2022-11-20T15:18:57;21.90;;;14.33;;
60306;SDS011;46155;52.364;6.580;2022-11-20T15:21:23;24.00;;;15.47;;
60306;SDS011;46155;52.364;6.580;2022-11-20T15:23:49;23.47;;;13.87;;
60306;SDS011;46155;52.364;6.580;2022-11-20T15:26:24;22.33;;;13.27;;
60306;SDS011;46155;52.364;6.580;2022-11-20T15:28:51;26.17;;;14.77;;
60306;SDS011;46155;52.364;6.580;2022-11-20T15:31:18;21.73;;;12.87;;
60306;SDS011;46155;52.364;6.580;2022-11-20T15:33:45;24.07;;;13.37;;
60306;SDS011;46155;52.364;6.580;2022-11-20T15:36:11;24.77;;;15.53;;
60306;SDS011;46155;52.364;6.580;2022-11-20T15:38:37;31.93;;;17.77;;
60306;SDS011;46155;52.364;6.580;2022-11-20T15:41:02;29.40;;;15.37;;
60306;SDS011;46155;52.364;6.580;2022-11-20T15:43:28;27.70;;;15.60;;
60306;SDS011;46155;52.364;6.580;2022-11-20T15:45:56;44.63;;;22.00;;
60306;SDS011;46155;52.364;6.580;2022-11-20T15:48:33;28.83;;;16.33;;
60306;SDS011;46155;52.364;6.580;2022-11-20T15:53:36;25.13;;;14.47;;
60306;SDS011;46155;52.364;6.580;2022-11-20T15:56:05;26.83;;;13.90;;
60306;SDS011;46155;52.364;6.580;2022-11-20T15:58:31;32.77;;;16.90;;
60306;SDS011;46155;52.364;6.580;2022-11-20T16:00:56;32.97;;;17.17;;
60306;SDS011;46155;52.364;6.580;2022-11-20T16:03:22;28.60;;;16.20;;
60306;SDS011;46155;52.364;6.580;2022-11-20T16:05:47;33.37;;;16.60;;
60306;SDS011;46155;52.364;6.580;2022-11-20T16:08:13;32.43;;;16.77;;
60306;SDS011;46155;52.364;6.580;2022-11-20T16:10:39;29.30;;;16.10;;
60306;SDS011;46155;52.364;6.580;2022-11-20T16:13:05;31.83;;;17.30;;
60306;SDS011;46155;52.364;6.580;2022-11-20T16:15:56;28.80;;;17.13;;
60306;SDS011;46155;52.364;6.580;2022-11-20T16:18:24;33.67;;;17.43;;
60306;SDS011;46155;52.364;6.580;2022-11-20T16:20:51;30.50;;;15.83;;
60306;SDS011;46155;52.364;6.580;2022-11-20T16:23:17;44.07;;;20.40;;
60306;SDS011;46155;52.364;6.580;2022-11-20T16:25:43;32.47;;;16.77;;
60306;SDS011;46155;52.364;6.580;2022-11-20T16:28:09;35.80;;;17.43;;
60306;SDS011;46155;52.364;6.580;2022-11-20T16:30:35;35.10;;;18.53;;
60306;SDS011;46155;52.364;6.580;2022-11-20T16:33:01;37.33;;;19.93;;
60306;SDS011;46155;52.364;6.580;2022-11-20T16:35:27;36.43;;;19.93;;
60306;SDS011;46155;52.364;6.580;2022-11-20T16:37:54;37.23;;;20.80;;
60306;SDS011;46155;52.364;6.580;2022-11-20T16:40:20;35.63;;;19.30;;
60306;SDS011;46155;52.364;6.580;2022-11-20T16:42:46;36.00;;;20.57;;
60306;SDS011;46155;52.364;6.580;2022-11-20T16:45:12;35.40;;;18.77;;
60306;SDS011;46155;52.364;6.580;2022-11-20T16:47:37;40.30;;;19.53;;
60306;SDS011;46155;52.364;6.580;2022-11-20T16:50:03;39.03;;;22.10;;
60306;SDS011;46155;52.364;6.580;2022-11-20T16:52:30;44.67;;;20.13;;
60306;SDS011;46155;52.364;6.580;2022-11-20T16:54:56;41.13;;;20.27;;
60306;SDS011;46155;52.364;6.580;2022-11-20T16:57:21;40.03;;;21.63;;
60306;SDS011;46155;52.364;6.580;2022-11-20T16:59:47;38.27;;;20.27;;
60306;SDS011;46155;52.364;6.580;2022-11-20T17:02:12;44.43;;;21.63;;
60306;SDS011;46155;52.364;6.580;2022-11-20T17:04:38;41.00;;;21.87;;
60306;SDS011;46155;52.364;6.580;2022-11-20T17:07:03;34.67;;;19.47;;
60306;SDS011;46155;52.364;6.580;2022-11-20T17:09:29;35.97;;;21.17;;
60306;SDS011;46155;52.364;6.580;2022-11-20T17:11:54;38.20;;;19.77;;
60306;SDS011;46155;52.364;6.580;2022-11-20T17:14:19;48.33;;;21.03;;
60306;SDS011;46155;52.364;6.580;2022-11-20T17:16:45;42.00;;;22.20;;
60306;SDS011;46155;52.364;6.580;2022-11-20T17:19:10;41.53;;;20.17;;
60306;SDS011;46155;52.364;6.580;2022-11-20T17:21:36;39.60;;;19.47;;
60306;SDS011;46155;52.364;6.580;2022-11-20T17:24:04;47.00;;;21.77;;
60306;SDS011;46155;52.364;6.580;2022-11-20T17:26:30;34.67;;;19.60;;
60306;SDS011;46155;52.364;6.580;2022-11-20T17:28:57;40.23;;;22.73;;
60306;SDS011;46155;52.364;6.580;2022-11-20T17:31:25;38.70;;;23.40;;
60306;SDS011;46155;52.364;6.580;2022-11-20T17:33:51;34.83;;;23.47;;
60306;SDS011;46155;52.364;6.580;2022-11-20T17:36:17;40.10;;;22.27;;
60306;SDS011;46155;52.364;6.580;2022-11-20T17:38:43;35.43;;;22.20;;
60306;SDS011;46155;52.364;6.580;2022-11-20T17:41:16;38.80;;;20.93;;
60306;SDS011;46155;52.364;6.580;2022-11-20T17:43:42;41.70;;;24.93;;
60306;SDS011;46155;52.364;6.580;2022-11-20T17:46:12;42.43;;;22.77;;
60306;SDS011;46155;52.364;6.580;2022-11-20T17:48:40;38.60;;;22.50;;
60306;SDS011;46155;52.364;6.580;2022-11-20T17:51:08;40.83;;;21.47;;
60306;SDS011;46155;52.364;6.580;2022-11-20T17:53:38;48.50;;;23.70;;
60306;SDS011;46155;52.364;6.580;2022-11-20T17:56:05;44.93;;;23.70;;
60306;SDS011;46155;52.364;6.580;2022-11-20T17:58:49;36.13;;;24.03;;
60306;SDS011;46155;52.364;6.580;2022-11-20T18:01:15;46.07;;;22.17;;
60306;SDS011;46155;52.364;6.580;2022-11-20T18:03:41;35.87;;;23.77;;
60306;SDS011;46155;52.364;6.580;2022-11-20T18:06:10;31.13;;;22.03;;
60306;SDS011;46155;52.364;6.580;2022-11-20T18:08:36;30.97;;;20.23;;
60306;SDS011;46155;52.364;6.580;2022-11-20T18:11:15;34.40;;;20.93;;
60306;SDS011;46155;52.364;6.580;2022-11-20T18:13:43;32.03;;;23.47;;
60306;SDS011;46155;52.364;6.580;2022-11-20T18:16:29;39.47;;;22.93;;
60306;SDS011;46155;52.364;6.580;2022-11-20T18:18:57;37.13;;;23.37;;
60306;SDS011;46155;52.364;6.580;2022-11-20T18:21:24;37.83;;;22.37;;
60306;SDS011;46155;52.364;6.580;2022-11-20T18:23:51;33.80;;;25.77;;
60306;SDS011;46155;52.364;6.580;2022-11-20T18:26:18;41.73;;;27.87;;
60306;SDS011;46155;52.364;6.580;2022-11-20T18:28:43;42.60;;;28.63;;
60306;SDS011;46155;52.364;6.580;2022-11-20T18:31:09;43.63;;;25.97;;
60306;SDS011;46155;52.364;6.580;2022-11-20T18:33:34;42.27;;;27.23;;
60306;SDS011;46155;52.364;6.580;2022-11-20T18:36:10;48.20;;;28.43;;
60306;SDS011;46155;52.364;6.580;2022-11-20T18:38:37;45.40;;;27.10;;
60306;SDS011;46155;52.364;6.580;2022-11-20T18:41:04;40.73;;;26.40;;
60306;SDS011;46155;52.364;6.580;2022-11-20T18:43:30;38.37;;;26.70;;
60306;SDS011;46155;52.364;6.580;2022-11-20T18:46:14;40.17;;;27.27;;
60306;SDS011;46155;52.364;6.580;2022-11-20T18:48:39;45.20;;;26.43;;
60306;SDS011;46155;52.364;6.580;2022-11-20T18:51:07;45.87;;;29.53;;
60306;SDS011;46155;52.364;6.580;2022-11-20T18:53:35;43.87;;;28.40;;
60306;SDS011;46155;52.364;6.580;2022-11-20T18:56:04;44.60;;;29.47;;
60306;SDS011;46155;52.364;6.580;2022-11-20T18:58:30;46.37;;;30.60;;
60306;SDS011;46155;52.364;6.580;2022-11-20T19:00:56;51.67;;;29.40;;
60306;SDS011;46155;52.364;6.580;2022-11-20T19:03:29;43.73;;;28.70;;
60306;SDS011;46155;52.364;6.580;2022-11-20T19:05:54;48.87;;;29.63;;
60306;SDS011;46155;52.364;6.580;2022-11-20T19:08:19;38.30;;;26.73;;
60306;SDS011;46155;52.364;6.580;2022-11-20T19:10:44;45.70;;;27.20;;
60306;SDS011;46155;52.364;6.580;2022-11-20T19:13:10;51.90;;;28.97;;
60306;SDS011;46155;52.364;6.580;2022-11-20T19:15:35;45.40;;;29.03;;
60306;SDS011;46155;52.364;6.580;2022-11-20T19:18:02;40.97;;;27.53;;
60306;SDS011;46155;52.364;6.580;2022-11-20T19:20:28;47.20;;;28.37;;
60306;SDS011;46155;52.364;6.580;2022-11-20T19:22:53;47.00;;;29.43;;
60306;SDS011;46155;52.364;6.580;2022-11-20T19:25:19;50.90;;;29.43;;
60306;SDS011;46155;52.364;6.580;2022-11-20T19:27:44;49.53;;;30.47;;
60306;SDS011;46155;52.364;6.580;2022-11-20T19:30:10;45.50;;;31.30;;
60306;SDS011;46155;52.364;6.580;2022-11-20T19:32:35;46.93;;;30.67;;
60306;SDS011;46155;52.364;6.580;2022-11-20T19:35:01;54.13;;;32.57;;
60306;SDS011;46155;52.364;6.580;2022-11-20T19:37:27;51.13;;;31.27;;
60306;SDS011;46155;52.364;6.580;2022-11-20T19:39:52;52.60;;;30.87;;
60306;SDS011;46155;52.364;6.580;2022-11-20T19:42:20;45.80;;;30.17;;
60306;SDS011;46155;52.364;6.580;2022-11-20T19:44:45;52.33;;;29.93;;
60306;SDS011;46155;52.364;6.580;2022-11-20T19:47:11;51.67;;;31.90;;
60306;SDS011;46155;52.364;6.580;2022-11-20T19:49:36;55.93;;;31.10;;